createdAt,value
2018-04-29T00:00:19.183Z,79.39
2018-04-29T00:02:45.063Z,79.87
2018-04-29T00:05:10.906Z,79.89
2018-04-29T00:07:36.738Z,79.90
2018-04-29T00:10:02.665Z,80.48
2018-04-29T00:12:28.524Z,80.88
2018-04-29T00:14:54.383Z,79.96
2018-04-29T00:17:20.228Z,80.05
2018-04-29T00:19:46.096Z,80.31
2018-04-29T00:22:11.936Z,79.90
2018-04-29T00:24:37.803Z,80.43
2018-04-29T00:27:03.652Z,80.64
2018-04-29T00:29:29.484Z,80.88
2018-04-29T00:31:55.378Z,80.74
2018-04-29T00:34:21.221Z,81.03
2018-04-29T00:36:47.096Z,81.05
2018-04-29T00:39:12.953Z,81.49
2018-04-29T00:41:38.828Z,81.87
2018-04-29T00:44:04.696Z,81.99
2018-04-29T00:46:30.551Z,81.95
2018-04-29T00:48:56.372Z,82.28
2018-04-29T00:51:24.132Z,82.31
2018-04-29T00:53:49.983Z,82.20
2018-04-29T00:56:15.829Z,82.16
2018-04-29T00:58:41.676Z,82.55
2018-04-29T01:01:07.538Z,82.41
2018-04-29T01:03:33.381Z,83.06
2018-04-29T01:05:59.295Z,83.21
2018-04-29T01:08:25.136Z,83.54
2018-04-29T01:10:50.994Z,83.69
2018-04-29T01:13:16.863Z,83.54
2018-04-29T01:15:42.711Z,82.80
2018-04-29T01:18:08.560Z,82.23
2018-04-29T01:20:34.418Z,82.30
2018-04-29T01:23:00.278Z,82.66
2018-04-29T01:25:26.118Z,82.76
2018-04-29T01:27:51.967Z,82.75
2018-04-29T01:30:17.826Z,82.26
2018-04-29T01:32:43.679Z,82.46
2018-04-29T01:35:09.513Z,82.63
2018-04-29T01:37:35.397Z,82.74
2018-04-29T01:40:01.262Z,82.87
2018-04-29T01:42:27.077Z,82.72
2018-04-29T01:44:52.975Z,82.44
2018-04-29T01:47:18.827Z,82.86
2018-04-29T01:49:44.684Z,82.96
2018-04-29T01:52:10.519Z,83.17
2018-04-29T01:54:36.388Z,83.69
2018-04-29T01:57:02.240Z,83.76
2018-04-29T01:59:28.105Z,83.68
2018-04-29T02:01:53.936Z,83.98
2018-04-29T02:04:19.799Z,84.07
2018-04-29T02:06:45.655Z,84.26
2018-04-29T02:09:11.504Z,84.61
2018-04-29T02:11:37.356Z,84.42
2018-04-29T02:14:03.223Z,84.68
2018-04-29T02:16:29.065Z,84.55
2018-04-29T02:18:54.925Z,84.74
2018-04-29T02:21:20.779Z,84.78
2018-04-29T02:23:46.630Z,84.92
2018-04-29T02:26:12.445Z,84.89
2018-04-29T02:28:38.308Z,85.14
2018-04-29T02:31:04.167Z,85.08
2018-04-29T02:33:30.020Z,85.07
2018-04-29T02:35:55.856Z,85.28
2018-04-29T02:38:21.699Z,85.32
2018-04-29T02:40:47.650Z,85.30
2018-04-29T02:43:13.448Z,85.54
2018-04-29T02:45:39.326Z,85.27
2018-04-29T02:48:05.171Z,85.26
2018-04-29T02:50:31.040Z,85.78
2018-04-29T02:52:56.893Z,85.45
2018-04-29T02:55:22.757Z,85.51
2018-04-29T02:57:48.595Z,85.56
2018-04-29T03:00:14.463Z,85.67
2018-04-29T03:02:40.297Z,85.97
2018-04-29T03:05:06.180Z,86.28
2018-04-29T03:07:32.049Z,85.95
2018-04-29T03:09:57.942Z,86.02
2018-04-29T03:12:23.775Z,86.22
2018-04-29T03:14:49.638Z,86.28
2018-04-29T03:17:15.507Z,86.65
2018-04-29T03:19:42.121Z,86.87
2018-04-29T03:22:07.983Z,87.03
2018-04-29T03:24:33.855Z,87.13
2018-04-29T03:26:59.711Z,87.07
2018-04-29T03:29:25.547Z,87.11
2018-04-29T03:31:51.419Z,87.17
2018-04-29T03:34:17.250Z,87.19
2018-04-29T03:36:43.102Z,87.26
2018-04-29T03:39:08.938Z,87.34
2018-04-29T03:41:34.815Z,87.09
2018-04-29T03:44:00.667Z,87.19
2018-04-29T03:46:26.556Z,87.07
2018-04-29T03:48:52.397Z,86.75
2018-04-29T03:51:18.253Z,86.74
2018-04-29T03:53:44.137Z,86.75
2018-04-29T03:56:09.969Z,86.74
2018-04-29T03:58:48.346Z,86.81
2018-04-29T04:01:26.732Z,86.73
2018-04-29T04:03:57.623Z,86.69
2018-04-29T04:06:23.523Z,86.69
2018-04-29T04:08:49.349Z,86.71
2018-04-29T04:11:15.197Z,86.70
2018-04-29T04:13:41.062Z,87.05
2018-04-29T04:16:06.920Z,87.08
2018-04-29T04:18:32.784Z,87.03
2018-04-29T04:20:58.638Z,87.04
2018-04-29T04:23:24.473Z,86.80
2018-04-29T04:25:50.323Z,87.32
2018-04-29T04:28:16.180Z,87.16
2018-04-29T04:30:42.051Z,87.36
2018-04-29T04:33:07.910Z,87.47
2018-04-29T04:35:33.772Z,87.57
2018-04-29T04:37:59.635Z,87.85
2018-04-29T04:40:25.495Z,87.72
2018-04-29T04:42:51.359Z,87.83
2018-04-29T04:45:17.218Z,87.93
2018-04-29T04:47:43.095Z,87.89
2018-04-29T04:50:08.941Z,87.70
2018-04-29T04:52:34.795Z,87.75
2018-04-29T04:55:00.623Z,87.46
2018-04-29T04:57:26.469Z,87.94
2018-04-29T04:59:52.316Z,87.96
2018-04-29T05:02:18.206Z,88.12
2018-04-29T05:04:44.062Z,88.28
2018-04-29T05:07:09.919Z,88.37
2018-04-29T05:09:35.766Z,88.43
2018-04-29T05:12:01.602Z,88.37
2018-04-29T05:14:27.450Z,88.53
2018-04-29T05:16:53.297Z,88.59
2018-04-29T05:19:19.149Z,88.75
2018-04-29T05:21:45.011Z,88.81
2018-04-29T05:24:10.896Z,88.35
2018-04-29T05:26:36.744Z,88.64
2018-04-29T05:29:02.610Z,88.51
2018-04-29T05:31:28.474Z,88.66
2018-04-29T05:33:54.346Z,88.63
2018-04-29T05:36:20.196Z,88.56
2018-04-29T05:38:46.040Z,88.42
2018-04-29T05:41:11.903Z,88.35
2018-04-29T05:43:37.755Z,88.03
2018-04-29T05:46:03.586Z,87.68
2018-04-29T05:48:29.433Z,87.65
2018-04-29T05:53:48.495Z,85.18
2018-04-29T05:56:14.355Z,82.60
2018-04-29T05:58:40.201Z,82.72
2018-04-29T06:01:06.064Z,82.26
2018-04-29T06:03:31.940Z,83.27
2018-04-29T06:05:57.783Z,78.96
2018-04-29T06:08:23.626Z,78.36
2018-04-29T06:10:49.499Z,77.95
2018-04-29T06:13:15.349Z,77.22
2018-04-29T06:15:41.241Z,75.93
2018-04-29T06:18:07.688Z,75.40
2018-04-29T06:20:33.622Z,76.05
2018-04-29T06:22:59.473Z,75.19
2018-04-29T06:25:25.345Z,76.06
2018-04-29T06:27:51.212Z,74.63
2018-04-29T06:30:17.121Z,75.63
2018-04-29T06:32:42.980Z,74.15
2018-04-29T06:35:08.866Z,72.16
2018-04-29T06:37:34.733Z,72.72
2018-04-29T06:40:00.607Z,73.17
2018-04-29T06:42:26.510Z,71.24
2018-04-29T06:44:52.917Z,71.52
2018-04-29T06:47:18.795Z,71.43
2018-04-29T06:49:44.667Z,71.73
2018-04-29T06:52:10.548Z,70.94
2018-04-29T06:54:36.451Z,70.31
2018-04-29T06:57:02.335Z,70.16
2018-04-29T06:59:28.207Z,70.55
2018-04-29T07:01:54.167Z,69.18
2018-04-29T07:04:20.111Z,69.85
2018-04-29T07:06:45.990Z,68.17
2018-04-29T07:09:11.870Z,67.59
2018-04-29T07:11:37.720Z,66.64
2018-04-29T07:14:19.518Z,66.78
2018-04-29T07:16:45.389Z,68.10
2018-04-29T07:19:11.280Z,66.55
2018-04-29T07:21:37.131Z,66.61
2018-04-29T07:24:02.990Z,64.70
2018-04-29T07:26:28.853Z,64.47
2018-04-29T07:28:54.707Z,62.88
2018-04-29T07:31:20.557Z,62.67
2018-04-29T07:33:46.394Z,62.61
2018-04-29T07:36:12.273Z,62.94
2018-04-29T07:38:38.194Z,62.79
2018-04-29T07:41:04.040Z,62.28
2018-04-29T07:43:29.898Z,62.02
2018-04-29T07:45:55.750Z,61.78
2018-04-29T07:48:21.765Z,62.60
2018-04-29T07:50:47.643Z,63.90
2018-04-29T07:53:13.528Z,62.67
2018-04-29T07:55:39.433Z,62.72
2018-04-29T07:58:05.290Z,61.79
2018-04-29T08:00:31.157Z,62.31
2018-04-29T08:02:57.021Z,63.14
2018-04-29T08:05:22.887Z,60.03
2018-04-29T08:07:48.748Z,59.52
2018-04-29T08:10:14.601Z,58.61
2018-04-29T08:12:40.490Z,58.89
2018-04-29T08:15:06.332Z,59.35
2018-04-29T08:17:32.200Z,58.99
2018-04-29T08:19:58.058Z,57.98
2018-04-29T08:22:23.915Z,58.38
2018-04-29T08:24:49.777Z,57.55
2018-04-29T08:27:15.810Z,57.63
2018-04-29T08:29:41.673Z,57.94
2018-04-29T08:32:07.538Z,59.62
2018-04-29T08:34:33.459Z,59.38
2018-04-29T08:36:59.347Z,57.93
2018-04-29T08:39:25.196Z,57.61
2018-04-29T08:41:51.141Z,57.15
2018-04-29T08:44:16.984Z,58.56
2018-04-29T08:46:42.855Z,58.34
2018-04-29T08:49:08.738Z,58.63
2018-04-29T08:51:34.613Z,57.86
2018-04-29T08:54:00.465Z,57.29
2018-04-29T08:56:26.355Z,57.83
2018-04-29T08:58:52.239Z,57.81
2018-04-29T09:01:18.097Z,58.27
2018-04-29T09:03:43.994Z,57.91
2018-04-29T09:06:09.879Z,56.12
2018-04-29T09:08:35.762Z,55.93
2018-04-29T09:11:01.624Z,56.88
2018-04-29T09:13:27.482Z,56.19
2018-04-29T09:15:53.372Z,56.68
2018-04-29T09:18:19.219Z,55.51
2018-04-29T09:20:45.071Z,54.06
2018-04-29T09:23:10.953Z,54.48
2018-04-29T09:25:36.820Z,56.13
2018-04-29T09:28:02.701Z,56.60
2018-04-29T09:30:28.576Z,54.89
2018-04-29T09:32:54.462Z,55.32
2018-04-29T09:35:20.379Z,55.23
2018-04-29T09:37:46.245Z,54.45
2018-04-29T09:40:12.117Z,54.30
2018-04-29T09:42:37.994Z,54.00
2018-04-29T09:45:03.874Z,53.79
2018-04-29T09:47:29.756Z,55.26
2018-04-29T09:49:55.667Z,54.58
2018-04-29T09:52:21.522Z,54.52
2018-04-29T09:54:47.383Z,55.67
2018-04-29T09:57:13.306Z,54.37
2018-04-29T09:59:39.164Z,54.98
2018-04-29T10:02:10.157Z,54.91
2018-04-29T10:04:36.027Z,54.69
2018-04-29T10:07:01.849Z,53.18
2018-04-29T10:09:27.780Z,54.43
2018-04-29T10:11:54.552Z,53.21
2018-04-29T10:14:20.453Z,55.56
2018-04-29T10:16:46.340Z,54.07
2018-04-29T10:19:12.205Z,53.00
2018-04-29T10:21:38.106Z,54.63
2018-04-29T10:24:03.972Z,53.37
2018-04-29T10:26:29.842Z,53.73
2018-04-29T10:28:55.711Z,52.73
2018-04-29T10:31:21.573Z,52.32
2018-04-29T10:33:47.452Z,52.17
2018-04-29T10:36:13.319Z,50.17
2018-04-29T10:38:39.180Z,51.47
2018-04-29T10:41:05.159Z,49.89
2018-04-29T10:43:31.052Z,49.69
2018-04-29T10:45:57.010Z,49.72
2018-04-29T10:48:22.969Z,48.87
2018-04-29T10:50:48.957Z,48.55
2018-04-29T10:53:14.841Z,48.69
2018-04-29T10:55:40.731Z,49.13
2018-04-29T10:58:06.656Z,49.65
2018-04-29T11:00:32.539Z,48.17
2018-04-29T11:02:58.436Z,47.61
2018-04-29T11:05:24.325Z,48.34
2018-04-29T11:07:50.185Z,49.47
2018-04-29T11:10:21.448Z,48.47
2018-04-29T11:12:47.471Z,48.95
2018-04-29T11:15:13.359Z,49.73
2018-04-29T11:17:39.215Z,49.97
2018-04-29T11:20:05.058Z,49.93
2018-04-29T11:22:30.950Z,50.45
2018-04-29T11:24:56.843Z,49.37
2018-04-29T11:27:22.754Z,48.80
2018-04-29T11:29:48.605Z,49.66
2018-04-29T11:32:14.481Z,49.03
2018-04-29T11:34:40.417Z,49.55
2018-04-29T11:37:06.228Z,50.04
2018-04-29T11:39:32.200Z,49.22
2018-04-29T11:41:58.074Z,49.72
2018-04-29T11:44:23.930Z,49.29
2018-04-29T11:46:49.779Z,49.79
2018-04-29T11:49:15.648Z,49.32
2018-04-29T11:51:41.511Z,51.80
2018-04-29T11:54:07.380Z,50.34
2018-04-29T11:56:33.252Z,50.47
2018-04-29T11:58:59.122Z,50.27
2018-04-29T12:01:24.993Z,50.56
2018-04-29T12:03:50.896Z,50.64
2018-04-29T12:06:16.753Z,51.60
2018-04-29T12:08:42.604Z,51.42
2018-04-29T12:11:08.478Z,50.79
2018-04-29T12:13:34.381Z,50.88
2018-04-29T12:16:00.296Z,50.56
2018-04-29T12:18:26.146Z,48.56
2018-04-29T12:20:51.990Z,49.44
2018-04-29T12:23:17.889Z,48.89
2018-04-29T12:25:43.774Z,49.86
2018-04-29T12:28:09.644Z,51.10
2018-04-29T12:30:35.490Z,50.42
2018-04-29T12:33:01.360Z,49.88
2018-04-29T12:35:27.215Z,49.95
2018-04-29T12:37:53.097Z,50.55
2018-04-29T12:40:18.989Z,50.22
2018-04-29T12:42:44.832Z,50.29
2018-04-29T12:45:10.698Z,51.91
2018-04-29T12:47:36.555Z,50.83
2018-04-29T12:50:02.479Z,49.21
2018-04-29T12:52:28.353Z,48.39
2018-04-29T12:54:54.283Z,48.90
2018-04-29T12:57:20.135Z,48.50
2018-04-29T12:59:46.011Z,48.21
2018-04-29T13:02:11.907Z,49.59
2018-04-29T13:04:37.800Z,48.64
2018-04-29T13:07:03.661Z,49.51
2018-04-29T13:09:29.507Z,50.10
2018-04-29T13:11:55.393Z,50.79
2018-04-29T13:14:21.286Z,50.08
2018-04-29T13:16:47.157Z,48.71
2018-04-29T13:19:13.022Z,45.81
2018-04-29T13:21:39.502Z,45.04
2018-04-29T13:24:05.353Z,44.25
2018-04-29T13:26:31.215Z,45.71
2018-04-29T13:28:57.117Z,42.93
2018-04-29T13:31:23.029Z,43.78
2018-04-29T13:33:48.904Z,42.60
2018-04-29T13:36:14.746Z,42.95
2018-04-29T13:38:40.637Z,43.16
2018-04-29T13:41:06.506Z,42.97
2018-04-29T13:43:32.354Z,43.42
2018-04-29T13:45:58.294Z,42.41
2018-04-29T13:48:24.154Z,42.11
2018-04-29T13:50:50.016Z,42.70
2018-04-29T13:53:15.943Z,42.07
2018-04-29T13:55:41.786Z,40.98
2018-04-29T13:58:07.621Z,41.30
2018-04-29T14:00:34.935Z,40.13
2018-04-29T14:03:00.818Z,39.79
2018-04-29T14:05:26.731Z,41.10
2018-04-29T14:07:52.561Z,39.28
2018-04-29T14:10:18.508Z,39.02
2018-04-29T14:12:44.332Z,39.35
2018-04-29T14:15:10.214Z,39.87
2018-04-29T14:17:36.091Z,39.89
2018-04-29T14:20:01.929Z,39.95
2018-04-29T14:22:27.843Z,39.17
2018-04-29T14:24:53.699Z,39.13
2018-04-29T14:27:19.567Z,39.37
2018-04-29T14:29:45.493Z,40.01
2018-04-29T14:32:12.097Z,39.07
2018-04-29T14:34:37.996Z,39.06
2018-04-29T14:37:03.911Z,41.59
2018-04-29T14:39:29.808Z,39.71
2018-04-29T14:41:55.692Z,39.26
2018-04-29T14:44:21.595Z,38.49
2018-04-29T14:46:47.445Z,39.25
2018-04-29T14:49:13.327Z,37.88
2018-04-29T14:51:39.292Z,38.18
2018-04-29T14:54:05.141Z,37.77
2018-04-29T14:56:30.997Z,38.58
2018-04-29T14:58:56.910Z,40.68
2018-04-29T15:01:22.843Z,39.08
2018-04-29T15:03:48.645Z,38.96
2018-04-29T15:06:14.569Z,37.84
2018-04-29T15:08:40.507Z,38.53
2018-04-29T15:11:06.380Z,37.95
2018-04-29T15:13:32.219Z,39.24
2018-04-29T15:15:58.087Z,39.55
2018-04-29T15:21:23.174Z,39.80
2018-04-29T15:23:49.039Z,41.13
2018-04-29T15:26:14.895Z,40.58
2018-04-29T15:28:41.110Z,41.02
2018-04-29T15:31:07.018Z,42.11
2018-04-29T15:33:32.873Z,43.38
2018-04-29T15:35:58.735Z,44.58
2018-04-29T15:38:24.590Z,44.28
2018-04-29T15:40:50.488Z,44.77
2018-04-29T15:43:16.410Z,45.23
2018-04-29T15:45:42.266Z,45.31
2018-04-29T15:48:08.173Z,46.22
2018-04-29T15:50:34.053Z,46.35
2018-04-29T15:52:59.912Z,45.91
2018-04-29T15:55:25.822Z,46.09
2018-04-29T15:57:51.724Z,46.97
2018-04-29T16:00:17.591Z,47.52
2018-04-29T16:02:43.482Z,48.55
2018-04-29T16:05:09.340Z,50.17
2018-04-29T16:07:35.241Z,50.05
2018-04-29T16:10:01.144Z,49.77
2018-04-29T16:12:27.026Z,50.70
2018-04-29T16:14:52.897Z,51.04
2018-04-29T16:17:18.760Z,50.91
2018-04-29T16:19:44.656Z,50.24
2018-04-29T16:22:10.500Z,44.25
2018-04-29T16:24:36.418Z,41.85
2018-04-29T16:27:02.307Z,41.41
2018-04-29T16:29:28.219Z,42.67
2018-04-29T16:31:54.114Z,43.04
2018-04-29T16:34:19.976Z,43.73
2018-04-29T16:36:46.548Z,45.84
2018-04-29T16:39:12.412Z,45.64
2018-04-29T16:41:38.360Z,49.46
2018-04-29T16:44:04.209Z,49.87
2018-04-29T16:46:30.131Z,51.79
2018-04-29T16:48:56.008Z,51.83
2018-04-29T16:51:21.857Z,51.25
2018-04-29T16:53:47.738Z,51.59
2018-04-29T16:56:13.591Z,50.30
2018-04-29T16:58:39.454Z,52.73
2018-04-29T17:01:05.321Z,52.05
2018-04-29T17:03:31.207Z,52.93
2018-04-29T17:05:57.104Z,51.17
2018-04-29T17:08:22.975Z,50.86
2018-04-29T17:10:48.882Z,50.63
2018-04-29T17:13:14.761Z,50.14
2018-04-29T17:15:40.619Z,50.56
2018-04-29T17:18:06.637Z,48.47
2018-04-29T17:20:32.600Z,47.53
2018-04-29T17:22:58.507Z,46.07
2018-04-29T17:25:24.395Z,46.50
2018-04-29T17:27:50.236Z,46.57
2018-04-29T17:30:16.101Z,47.14
2018-04-29T17:32:41.969Z,48.55
2018-04-29T17:35:07.878Z,49.02
2018-04-29T17:37:33.847Z,50.09
2018-04-29T17:39:59.694Z,51.34
2018-04-29T17:42:25.568Z,52.54
2018-04-29T17:44:51.487Z,53.83
2018-04-29T17:47:17.412Z,53.27
2018-04-29T17:49:43.373Z,54.06
2018-04-29T17:52:09.314Z,53.72
2018-04-29T17:54:35.174Z,53.89
2018-04-29T17:57:01.033Z,55.52
2018-04-29T17:59:26.992Z,54.65
2018-04-29T18:01:52.884Z,54.84
2018-04-29T18:04:18.803Z,56.41
2018-04-29T18:06:44.679Z,56.80
2018-04-29T18:09:10.575Z,56.75
2018-04-29T18:11:36.624Z,57.14
2018-04-29T18:14:02.554Z,57.48
2018-04-29T18:16:28.499Z,57.08
2018-04-29T18:18:54.401Z,57.89
2018-04-29T18:21:20.285Z,57.76
2018-04-29T18:23:46.198Z,60.02
2018-04-29T18:26:12.135Z,59.00
2018-04-29T18:28:38.019Z,59.85
2018-04-29T18:31:03.925Z,60.26
2018-04-29T18:33:29.829Z,60.50
2018-04-29T18:35:55.810Z,61.71
2018-04-29T18:38:21.731Z,61.85
2018-04-29T18:40:48.627Z,61.66
2018-04-29T18:43:14.526Z,61.36
2018-04-29T18:45:40.478Z,61.28
2018-04-29T18:48:06.545Z,61.56
2018-04-29T18:50:32.580Z,61.26
2018-04-29T18:52:58.392Z,62.41
2018-04-29T18:55:25.187Z,62.23
2018-04-29T18:57:51.093Z,62.30
2018-04-29T19:00:17.079Z,62.77
2018-04-29T19:02:42.961Z,62.53
2018-04-29T19:05:08.841Z,62.92
2018-04-29T19:07:49.703Z,63.13
2018-04-29T19:10:15.641Z,62.53
2018-04-29T19:12:41.565Z,62.80
2018-04-29T19:15:07.497Z,63.11
2018-04-29T19:17:33.402Z,63.32
2018-04-29T19:19:59.315Z,64.11
2018-04-29T19:22:25.179Z,63.80
2018-04-29T19:24:51.082Z,64.06
2018-04-29T19:27:17.983Z,63.87
2018-04-29T19:29:43.912Z,63.67
2018-04-29T19:32:09.794Z,63.42
2018-04-29T19:34:35.843Z,63.10
2018-04-29T19:37:01.782Z,63.93
2018-04-29T19:39:27.677Z,64.23
2018-04-29T19:41:53.601Z,63.88
2018-04-29T19:44:19.818Z,63.78
2018-04-29T19:46:45.706Z,64.16
2018-04-29T19:49:11.625Z,64.18
2018-04-29T19:51:37.485Z,64.62
2018-04-29T19:54:03.450Z,64.73
2018-04-29T19:56:29.934Z,64.94
2018-04-29T19:58:55.922Z,65.32
2018-04-29T20:01:21.816Z,65.66
2018-04-29T20:03:47.816Z,65.23
2018-04-29T20:06:13.693Z,65.86
2018-04-29T20:08:39.532Z,65.42
2018-04-29T20:11:05.488Z,65.28
2018-04-29T20:13:31.429Z,65.75
2018-04-29T20:15:57.351Z,65.96
2018-04-29T20:18:23.325Z,65.87
2018-04-29T20:20:49.134Z,65.77
2018-04-29T20:23:15.358Z,66.53
2018-04-29T20:25:42.443Z,66.57
2018-04-29T20:28:08.380Z,66.37
2018-04-29T20:30:34.301Z,66.45
2018-04-29T20:33:00.172Z,66.70
2018-04-29T20:35:26.089Z,66.65
2018-04-29T20:37:52.000Z,66.93
2018-04-29T20:40:17.893Z,66.75
2018-04-29T20:42:43.809Z,67.03
2018-04-29T20:45:09.666Z,67.04
2018-04-29T20:47:35.577Z,67.02
2018-04-29T20:50:01.491Z,67.56
2018-04-29T20:52:27.327Z,67.53
2018-04-29T20:54:53.267Z,67.18
2018-04-29T20:57:19.161Z,67.96
2018-04-29T20:59:45.070Z,67.79
2018-04-29T21:02:10.937Z,67.87
2018-04-29T21:04:36.843Z,67.25
2018-04-29T21:07:02.726Z,67.15
2018-04-29T21:09:28.611Z,67.51
2018-04-29T21:11:54.563Z,67.82
2018-04-29T21:14:20.426Z,67.76
2018-04-29T21:16:46.319Z,67.99
2018-04-29T21:19:12.188Z,68.35
2018-04-29T21:21:38.061Z,68.60
2018-04-29T21:24:03.951Z,68.72
2018-04-29T21:26:29.866Z,68.71
2018-04-29T21:28:55.760Z,68.23
2018-04-29T21:31:21.681Z,69.09
2018-04-29T21:33:47.530Z,68.60
2018-04-29T21:36:13.469Z,68.91
2018-04-29T21:38:39.352Z,69.00
2018-04-29T21:41:05.193Z,69.08
2018-04-29T21:43:31.073Z,68.28
2018-04-29T21:45:57.031Z,68.94
2018-04-29T21:48:22.940Z,68.44
2018-04-29T21:50:48.779Z,68.93
2018-04-29T21:53:14.688Z,68.68
2018-04-29T21:55:40.542Z,69.14
2018-04-29T21:58:06.434Z,69.25
2018-04-29T22:00:32.289Z,69.04
2018-04-29T22:02:58.130Z,69.00
2018-04-29T22:05:23.996Z,68.71
2018-04-29T22:07:49.842Z,68.88
2018-04-29T22:10:15.697Z,68.72
2018-04-29T22:12:41.534Z,69.02
2018-04-29T22:15:07.395Z,68.74
2018-04-29T22:17:33.244Z,69.27
2018-04-29T22:19:59.160Z,69.12
2018-04-29T22:22:24.999Z,68.74
2018-04-29T22:24:50.862Z,68.73
2018-04-29T22:27:16.727Z,68.65
2018-04-29T22:29:42.634Z,69.31
2018-04-29T22:32:08.481Z,69.40
2018-04-29T22:34:34.305Z,69.08
2018-04-29T22:37:00.219Z,69.66
2018-04-29T22:39:26.048Z,69.36
2018-04-29T22:41:51.907Z,69.76
2018-04-29T22:44:17.746Z,69.59
2018-04-29T22:46:43.608Z,70.00
2018-04-29T22:49:09.446Z,70.28
2018-04-29T22:51:35.285Z,70.57
2018-04-29T22:54:01.117Z,70.49
2018-04-29T22:56:26.983Z,69.96
2018-04-29T22:58:52.872Z,70.08
2018-04-29T23:01:18.740Z,70.06
2018-04-29T23:03:44.590Z,69.63
2018-04-29T23:06:10.448Z,69.37
2018-04-29T23:08:36.282Z,69.41
2018-04-29T23:11:02.154Z,69.24
2018-04-29T23:13:28.002Z,69.19
2018-04-29T23:15:53.855Z,69.33
2018-04-29T23:18:19.690Z,69.76
2018-04-29T23:20:45.549Z,69.23
2018-04-29T23:23:11.392Z,69.32
2018-04-29T23:25:37.264Z,69.29
2018-04-29T23:28:03.175Z,69.75
2018-04-29T23:30:29.201Z,69.51
2018-04-29T23:32:55.077Z,70.15
2018-04-29T23:35:20.979Z,69.66
2018-04-29T23:37:46.823Z,69.54
2018-04-29T23:40:12.680Z,69.29
2018-04-29T23:42:38.556Z,69.46
2018-04-29T23:45:04.408Z,70.04
2018-04-29T23:47:30.280Z,69.87
2018-04-29T23:49:56.121Z,69.75
2018-04-29T23:52:21.980Z,69.74
2018-04-29T23:54:47.841Z,70.03
2018-04-29T23:57:13.686Z,70.10
2018-04-29T23:59:39.575Z,70.39
